sensor_id;sensor_type;location;lat;lon;timestamp;temperature;humidity
41447;DHT22;27185;52.040;4.490;2023-04-24T00:01:01;11.70;99.90
41447;DHT22;27185;52.040;4.490;2023-04-24T00:03:47;11.70;99.90
41447;DHT22;27185;52.040;4.490;2023-04-24T00:06:33;11.70;99.90
41447;DHT22;27185;52.040;4.490;2023-04-24T00:09:19;11.70;99.90
41447;DHT22;27185;52.040;4.490;2023-04-24T00:12:04;11.80;99.90
41447;DHT22;27185;52.040;4.490;2023-04-24T00:14:50;11.80;99.90
41447;DHT22;27185;52.040;4.490;2023-04-24T00:17:36;11.80;99.90
41447;DHT22;27185;52.040;4.490;2023-04-24T00:20:21;11.80;99.90
41447;DHT22;27185;52.040;4.490;2023-04-24T00:23:08;11.80;99.90
41447;DHT22;27185;52.040;4.490;2023-04-24T00:25:53;11.80;99.90
41447;DHT22;27185;52.040;4.490;2023-04-24T00:28:39;11.80;99.90
41447;DHT22;27185;52.040;4.490;2023-04-24T00:31:24;11.80;99.90
41447;DHT22;27185;52.040;4.490;2023-04-24T00:34:10;11.80;99.90
41447;DHT22;27185;52.040;4.490;2023-04-24T00:36:57;11.80;99.90
41447;DHT22;27185;52.040;4.490;2023-04-24T00:39:42;11.90;99.90
41447;DHT22;27185;52.040;4.490;2023-04-24T00:42:28;11.80;99.90
41447;DHT22;27185;52.040;4.490;2023-04-24T00:45:14;11.80;99.90
41447;DHT22;27185;52.040;4.490;2023-04-24T00:48:00;11.80;99.90
41447;DHT22;27185;52.040;4.490;2023-04-24T00:50:46;11.80;99.90
41447;DHT22;27185;52.040;4.490;2023-04-24T00:53:32;11.80;99.90
41447;DHT22;27185;52.040;4.490;2023-04-24T00:56:18;11.80;99.90
41447;DHT22;27185;52.040;4.490;2023-04-24T00:59:05;11.80;99.90
41447;DHT22;27185;52.040;4.490;2023-04-24T01:01:51;11.80;99.90
41447;DHT22;27185;52.040;4.490;2023-04-24T01:04:37;11.80;99.90
41447;DHT22;27185;52.040;4.490;2023-04-24T01:07:23;11.80;99.90
41447;DHT22;27185;52.040;4.490;2023-04-24T01:10:10;11.80;99.90
41447;DHT22;27185;52.040;4.490;2023-04-24T01:12:55;11.80;99.90
41447;DHT22;27185;52.040;4.490;2023-04-24T01:15:41;11.80;99.90
41447;DHT22;27185;52.040;4.490;2023-04-24T01:18:27;11.80;99.90
41447;DHT22;27185;52.040;4.490;2023-04-24T01:21:16;11.80;99.90
41447;DHT22;27185;52.040;4.490;2023-04-24T01:24:03;11.80;99.90
41447;DHT22;27185;52.040;4.490;2023-04-24T01:26:49;11.80;99.90
41447;DHT22;27185;52.040;4.490;2023-04-24T01:29:35;11.80;99.90
41447;DHT22;27185;52.040;4.490;2023-04-24T01:32:21;11.80;99.90
41447;DHT22;27185;52.040;4.490;2023-04-24T01:35:07;11.80;99.90
41447;DHT22;27185;52.040;4.490;2023-04-24T01:37:53;11.80;99.90
41447;DHT22;27185;52.040;4.490;2023-04-24T01:40:38;11.80;99.90
41447;DHT22;27185;52.040;4.490;2023-04-24T01:43:24;11.80;99.90
41447;DHT22;27185;52.040;4.490;2023-04-24T01:46:10;11.80;99.90
41447;DHT22;27185;52.040;4.490;2023-04-24T01:48:56;11.80;99.90
41447;DHT22;27185;52.040;4.490;2023-04-24T01:51:41;11.80;99.90
41447;DHT22;27185;52.040;4.490;2023-04-24T01:54:27;11.80;99.90
41447;DHT22;27185;52.040;4.490;2023-04-24T01:57:14;11.80;99.90
41447;DHT22;27185;52.040;4.490;2023-04-24T02:00:00;11.80;99.90
41447;DHT22;27185;52.040;4.490;2023-04-24T02:02:45;11.80;99.90
41447;DHT22;27185;52.040;4.490;2023-04-24T02:05:31;11.70;99.90
41447;DHT22;27185;52.040;4.490;2023-04-24T02:08:17;11.80;99.90
41447;DHT22;27185;52.040;4.490;2023-04-24T02:11:03;11.80;99.90
41447;DHT22;27185;52.040;4.490;2023-04-24T02:13:49;11.70;99.90
41447;DHT22;27185;52.040;4.490;2023-04-24T02:16:35;11.70;99.90
41447;DHT22;27185;52.040;4.490;2023-04-24T02:19:21;11.70;99.90
41447;DHT22;27185;52.040;4.490;2023-04-24T02:22:06;11.70;99.90
41447;DHT22;27185;52.040;4.490;2023-04-24T02:24:52;11.70;99.90
41447;DHT22;27185;52.040;4.490;2023-04-24T02:27:38;11.70;99.90
41447;DHT22;27185;52.040;4.490;2023-04-24T02:30:23;11.70;99.90
41447;DHT22;27185;52.040;4.490;2023-04-24T02:33:09;11.70;99.90
41447;DHT22;27185;52.040;4.490;2023-04-24T02:35:55;11.70;99.90
41447;DHT22;27185;52.040;4.490;2023-04-24T02:38:40;11.60;99.90
41447;DHT22;27185;52.040;4.490;2023-04-24T02:41:26;11.60;99.90
41447;DHT22;27185;52.040;4.490;2023-04-24T02:44:16;11.60;99.90
41447;DHT22;27185;52.040;4.490;2023-04-24T02:47:02;11.50;99.90
41447;DHT22;27185;52.040;4.490;2023-04-24T02:49:48;11.50;99.90
41447;DHT22;27185;52.040;4.490;2023-04-24T02:52:34;11.40;99.90
41447;DHT22;27185;52.040;4.490;2023-04-24T02:55:20;11.40;99.90
41447;DHT22;27185;52.040;4.490;2023-04-24T02:58:05;11.40;99.90
41447;DHT22;27185;52.040;4.490;2023-04-24T03:00:54;11.40;99.90
41447;DHT22;27185;52.040;4.490;2023-04-24T03:03:44;11.40;99.90
41447;DHT22;27185;52.040;4.490;2023-04-24T03:06:29;11.30;99.90
41447;DHT22;27185;52.040;4.490;2023-04-24T03:09:16;11.30;99.90
41447;DHT22;27185;52.040;4.490;2023-04-24T03:12:02;11.30;99.90
41447;DHT22;27185;52.040;4.490;2023-04-24T03:14:47;11.30;99.90
41447;DHT22;27185;52.040;4.490;2023-04-24T03:17:33;11.20;99.90
41447;DHT22;27185;52.040;4.490;2023-04-24T03:20:18;11.20;99.90
41447;DHT22;27185;52.040;4.490;2023-04-24T03:23:04;11.20;99.90
41447;DHT22;27185;52.040;4.490;2023-04-24T03:25:50;11.20;99.90
41447;DHT22;27185;52.040;4.490;2023-04-24T03:28:35;11.20;99.90
41447;DHT22;27185;52.040;4.490;2023-04-24T03:31:21;11.20;99.90
41447;DHT22;27185;52.040;4.490;2023-04-24T03:34:07;11.20;99.90
41447;DHT22;27185;52.040;4.490;2023-04-24T03:36:52;11.20;99.90
41447;DHT22;27185;52.040;4.490;2023-04-24T03:39:38;11.20;99.90
41447;DHT22;27185;52.040;4.490;2023-04-24T03:42:24;11.20;99.90
41447;DHT22;27185;52.040;4.490;2023-04-24T03:45:09;11.20;99.90
41447;DHT22;27185;52.040;4.490;2023-04-24T03:47:55;11.30;99.90
41447;DHT22;27185;52.040;4.490;2023-04-24T03:50:41;11.30;99.90
41447;DHT22;27185;52.040;4.490;2023-04-24T03:53:26;11.30;99.90
41447;DHT22;27185;52.040;4.490;2023-04-24T03:56:12;11.30;99.90
41447;DHT22;27185;52.040;4.490;2023-04-24T03:58:57;11.30;99.90
41447;DHT22;27185;52.040;4.490;2023-04-24T04:01:43;11.40;99.90
41447;DHT22;27185;52.040;4.490;2023-04-24T04:04:29;11.40;99.90
41447;DHT22;27185;52.040;4.490;2023-04-24T04:07:14;11.40;99.90
41447;DHT22;27185;52.040;4.490;2023-04-24T04:10:00;11.40;99.90
41447;DHT22;27185;52.040;4.490;2023-04-24T04:12:45;11.40;99.90
41447;DHT22;27185;52.040;4.490;2023-04-24T04:15:31;11.40;99.90
41447;DHT22;27185;52.040;4.490;2023-04-24T04:18:16;11.40;99.90
41447;DHT22;27185;52.040;4.490;2023-04-24T04:21:02;11.40;99.90
41447;DHT22;27185;52.040;4.490;2023-04-24T04:23:48;11.40;99.90
41447;DHT22;27185;52.040;4.490;2023-04-24T04:26:33;11.30;99.90
41447;DHT22;27185;52.040;4.490;2023-04-24T04:29:20;11.40;99.90
41447;DHT22;27185;52.040;4.490;2023-04-24T04:32:07;11.40;99.90
41447;DHT22;27185;52.040;4.490;2023-04-24T04:34:53;11.40;99.90
41447;DHT22;27185;52.040;4.490;2023-04-24T04:37:38;11.40;99.90
41447;DHT22;27185;52.040;4.490;2023-04-24T04:40:25;11.40;99.90
41447;DHT22;27185;52.040;4.490;2023-04-24T04:43:12;11.40;99.90
41447;DHT22;27185;52.040;4.490;2023-04-24T04:45:58;11.40;99.90
41447;DHT22;27185;52.040;4.490;2023-04-24T04:48:45;11.40;99.90
41447;DHT22;27185;52.040;4.490;2023-04-24T04:51:31;11.30;99.90
41447;DHT22;27185;52.040;4.490;2023-04-24T04:54:17;11.30;99.90
41447;DHT22;27185;52.040;4.490;2023-04-24T04:57:02;11.30;99.90
41447;DHT22;27185;52.040;4.490;2023-04-24T04:59:48;11.30;99.90
41447;DHT22;27185;52.040;4.490;2023-04-24T05:02:34;11.20;99.90
41447;DHT22;27185;52.040;4.490;2023-04-24T05:05:20;11.20;99.90
41447;DHT22;27185;52.040;4.490;2023-04-24T05:08:06;11.10;99.90
41447;DHT22;27185;52.040;4.490;2023-04-24T05:10:52;11.10;99.90
41447;DHT22;27185;52.040;4.490;2023-04-24T05:13:38;11.00;99.90
41447;DHT22;27185;52.040;4.490;2023-04-24T05:16:23;11.00;99.90
41447;DHT22;27185;52.040;4.490;2023-04-24T05:19:09;10.90;99.90
41447;DHT22;27185;52.040;4.490;2023-04-24T05:21:56;10.90;99.90
41447;DHT22;27185;52.040;4.490;2023-04-24T05:24:41;10.90;99.90
41447;DHT22;27185;52.040;4.490;2023-04-24T05:27:27;10.90;99.90
41447;DHT22;27185;52.040;4.490;2023-04-24T05:30:13;10.80;99.90
41447;DHT22;27185;52.040;4.490;2023-04-24T05:32:59;10.80;99.90
41447;DHT22;27185;52.040;4.490;2023-04-24T05:35:45;10.80;99.90
41447;DHT22;27185;52.040;4.490;2023-04-24T05:38:32;10.80;99.90
41447;DHT22;27185;52.040;4.490;2023-04-24T05:41:17;10.70;99.90
41447;DHT22;27185;52.040;4.490;2023-04-24T05:44:03;10.70;99.90
41447;DHT22;27185;52.040;4.490;2023-04-24T05:46:48;10.60;99.90
41447;DHT22;27185;52.040;4.490;2023-04-24T05:49:34;10.60;99.90
41447;DHT22;27185;52.040;4.490;2023-04-24T05:52:20;10.60;99.90
41447;DHT22;27185;52.040;4.490;2023-04-24T05:55:05;10.60;99.90
41447;DHT22;27185;52.040;4.490;2023-04-24T05:57:51;10.60;99.90
41447;DHT22;27185;52.040;4.490;2023-04-24T06:00:37;10.60;99.90
41447;DHT22;27185;52.040;4.490;2023-04-24T06:03:25;10.60;99.90
41447;DHT22;27185;52.040;4.490;2023-04-24T06:06:10;10.60;99.90
41447;DHT22;27185;52.040;4.490;2023-04-24T06:08:56;10.60;99.90
41447;DHT22;27185;52.040;4.490;2023-04-24T06:11:42;10.60;99.90
41447;DHT22;27185;52.040;4.490;2023-04-24T06:14:28;10.60;99.90
41447;DHT22;27185;52.040;4.490;2023-04-24T06:17:13;10.70;99.90
41447;DHT22;27185;52.040;4.490;2023-04-24T06:19:59;10.60;99.90
41447;DHT22;27185;52.040;4.490;2023-04-24T06:22:45;10.60;99.90
41447;DHT22;27185;52.040;4.490;2023-04-24T06:25:30;10.60;99.90
41447;DHT22;27185;52.040;4.490;2023-04-24T06:28:16;10.60;99.90
41447;DHT22;27185;52.040;4.490;2023-04-24T06:31:02;10.60;99.90
41447;DHT22;27185;52.040;4.490;2023-04-24T06:33:48;10.60;99.90
41447;DHT22;27185;52.040;4.490;2023-04-24T06:36:34;10.60;99.90
41447;DHT22;27185;52.040;4.490;2023-04-24T06:39:20;10.60;99.90
41447;DHT22;27185;52.040;4.490;2023-04-24T06:42:06;10.60;99.90
41447;DHT22;27185;52.040;4.490;2023-04-24T06:44:53;10.60;99.90
41447;DHT22;27185;52.040;4.490;2023-04-24T06:47:38;10.60;99.90
41447;DHT22;27185;52.040;4.490;2023-04-24T06:50:24;10.60;99.90
41447;DHT22;27185;52.040;4.490;2023-04-24T06:53:10;10.60;99.90
41447;DHT22;27185;52.040;4.490;2023-04-24T06:55:57;10.60;99.90
41447;DHT22;27185;52.040;4.490;2023-04-24T06:58:43;10.70;99.90
41447;DHT22;27185;52.040;4.490;2023-04-24T07:01:29;10.70;99.90
41447;DHT22;27185;52.040;4.490;2023-04-24T07:04:14;10.70;99.90
41447;DHT22;27185;52.040;4.490;2023-04-24T07:07:00;10.70;99.90
41447;DHT22;27185;52.040;4.490;2023-04-24T07:09:46;10.60;99.90
41447;DHT22;27185;52.040;4.490;2023-04-24T07:12:31;10.60;99.90
41447;DHT22;27185;52.040;4.490;2023-04-24T07:15:17;10.60;99.90
41447;DHT22;27185;52.040;4.490;2023-04-24T07:18:03;10.60;99.90
41447;DHT22;27185;52.040;4.490;2023-04-24T07:20:48;10.70;99.90
41447;DHT22;27185;52.040;4.490;2023-04-24T07:23:35;10.70;99.90
41447;DHT22;27185;52.040;4.490;2023-04-24T07:26:21;10.70;99.90
41447;DHT22;27185;52.040;4.490;2023-04-24T07:29:07;10.80;99.90
41447;DHT22;27185;52.040;4.490;2023-04-24T07:31:53;10.80;99.90
41447;DHT22;27185;52.040;4.490;2023-04-24T07:34:39;10.80;99.90
41447;DHT22;27185;52.040;4.490;2023-04-24T07:37:25;10.80;99.90
41447;DHT22;27185;52.040;4.490;2023-04-24T07:40:12;10.90;99.90
41447;DHT22;27185;52.040;4.490;2023-04-24T07:42:59;10.90;99.90
41447;DHT22;27185;52.040;4.490;2023-04-24T07:45:44;10.90;99.90
41447;DHT22;27185;52.040;4.490;2023-04-24T07:48:30;11.00;99.90
41447;DHT22;27185;52.040;4.490;2023-04-24T07:51:15;11.00;99.90
41447;DHT22;27185;52.040;4.490;2023-04-24T07:54:01;11.00;99.90
41447;DHT22;27185;52.040;4.490;2023-04-24T07:56:47;10.90;99.90
41447;DHT22;27185;52.040;4.490;2023-04-24T07:59:33;10.90;99.90
41447;DHT22;27185;52.040;4.490;2023-04-24T08:02:19;10.90;99.90
41447;DHT22;27185;52.040;4.490;2023-04-24T08:05:06;10.90;99.90
41447;DHT22;27185;52.040;4.490;2023-04-24T08:07:51;10.90;99.90
41447;DHT22;27185;52.040;4.490;2023-04-24T08:10:37;10.90;99.90
41447;DHT22;27185;52.040;4.490;2023-04-24T08:13:23;10.90;99.90
41447;DHT22;27185;52.040;4.490;2023-04-24T08:16:09;11.00;99.90
41447;DHT22;27185;52.040;4.490;2023-04-24T08:18:54;10.90;99.90
41447;DHT22;27185;52.040;4.490;2023-04-24T08:21:40;11.00;99.90
41447;DHT22;27185;52.040;4.490;2023-04-24T08:24:25;11.00;99.90
41447;DHT22;27185;52.040;4.490;2023-04-24T08:27:11;11.00;99.90
41447;DHT22;27185;52.040;4.490;2023-04-24T08:29:57;11.10;99.90
41447;DHT22;27185;52.040;4.490;2023-04-24T08:32:43;11.10;99.90
41447;DHT22;27185;52.040;4.490;2023-04-24T08:35:28;11.10;99.90
41447;DHT22;27185;52.040;4.490;2023-04-24T08:38:15;11.20;99.90
41447;DHT22;27185;52.040;4.490;2023-04-24T08:41:01;11.20;99.90
41447;DHT22;27185;52.040;4.490;2023-04-24T08:43:47;11.20;99.90
41447;DHT22;27185;52.040;4.490;2023-04-24T08:46:33;11.20;99.90
41447;DHT22;27185;52.040;4.490;2023-04-24T08:49:20;11.10;99.90
41447;DHT22;27185;52.040;4.490;2023-04-24T08:52:06;11.10;99.90
41447;DHT22;27185;52.040;4.490;2023-04-24T08:54:52;11.10;99.90
41447;DHT22;27185;52.040;4.490;2023-04-24T08:57:39;11.20;99.90
41447;DHT22;27185;52.040;4.490;2023-04-24T09:00:25;11.20;99.90
41447;DHT22;27185;52.040;4.490;2023-04-24T09:03:11;11.30;99.90
41447;DHT22;27185;52.040;4.490;2023-04-24T09:05:58;11.30;99.90
41447;DHT22;27185;52.040;4.490;2023-04-24T09:08:45;11.30;99.90
41447;DHT22;27185;52.040;4.490;2023-04-24T09:11:32;11.30;99.90
41447;DHT22;27185;52.040;4.490;2023-04-24T09:14:18;11.30;99.90
41447;DHT22;27185;52.040;4.490;2023-04-24T09:17:06;11.30;99.90
41447;DHT22;27185;52.040;4.490;2023-04-24T09:19:52;11.30;99.90
41447;DHT22;27185;52.040;4.490;2023-04-24T09:22:37;11.30;99.90
41447;DHT22;27185;52.040;4.490;2023-04-24T09:25:31;11.30;99.90
41447;DHT22;27185;52.040;4.490;2023-04-24T09:28:18;11.40;99.90
41447;DHT22;27185;52.040;4.490;2023-04-24T09:34:00;11.40;99.90
41447;DHT22;27185;52.040;4.490;2023-04-24T09:36:46;11.50;99.90
41447;DHT22;27185;52.040;4.490;2023-04-24T09:39:31;11.60;99.90
41447;DHT22;27185;52.040;4.490;2023-04-24T09:42:17;11.70;99.90
41447;DHT22;27185;52.040;4.490;2023-04-24T09:45:03;11.90;99.90
41447;DHT22;27185;52.040;4.490;2023-04-24T09:47:52;12.00;99.90
41447;DHT22;27185;52.040;4.490;2023-04-24T09:50:46;12.10;99.90
41447;DHT22;27185;52.040;4.490;2023-04-24T09:53:31;12.20;99.90
41447;DHT22;27185;52.040;4.490;2023-04-24T09:56:17;12.20;99.90
41447;DHT22;27185;52.040;4.490;2023-04-24T09:59:07;12.20;99.90
41447;DHT22;27185;52.040;4.490;2023-04-24T10:01:52;12.10;99.90
41447;DHT22;27185;52.040;4.490;2023-04-24T10:04:38;12.00;99.90
41447;DHT22;27185;52.040;4.490;2023-04-24T10:07:26;11.90;99.90
41447;DHT22;27185;52.040;4.490;2023-04-24T10:10:12;11.80;99.90
41447;DHT22;27185;52.040;4.490;2023-04-24T10:12:57;11.70;99.90
41447;DHT22;27185;52.040;4.490;2023-04-24T10:15:44;11.60;99.90
41447;DHT22;27185;52.040;4.490;2023-04-24T10:18:30;11.50;99.90
41447;DHT22;27185;52.040;4.490;2023-04-24T10:21:17;11.40;99.90
41447;DHT22;27185;52.040;4.490;2023-04-24T10:24:03;11.30;99.90
41447;DHT22;27185;52.040;4.490;2023-04-24T10:26:52;11.30;99.90
41447;DHT22;27185;52.040;4.490;2023-04-24T10:29:38;11.30;99.90
41447;DHT22;27185;52.040;4.490;2023-04-24T10:32:25;11.40;99.90
41447;DHT22;27185;52.040;4.490;2023-04-24T10:35:13;11.50;99.90
41447;DHT22;27185;52.040;4.490;2023-04-24T10:40:47;11.90;99.90
41447;DHT22;27185;52.040;4.490;2023-04-24T10:43:33;12.10;99.90
41447;DHT22;27185;52.040;4.490;2023-04-24T10:46:22;12.30;99.90
41447;DHT22;27185;52.040;4.490;2023-04-24T10:49:08;12.40;99.90
41447;DHT22;27185;52.040;4.490;2023-04-24T10:51:54;12.50;99.90
41447;DHT22;27185;52.040;4.490;2023-04-24T10:54:46;12.60;99.90
41447;DHT22;27185;52.040;4.490;2023-04-24T10:57:32;12.60;99.90
41447;DHT22;27185;52.040;4.490;2023-04-24T11:00:22;12.60;99.90
41447;DHT22;27185;52.040;4.490;2023-04-24T11:03:27;12.60;99.90
41447;DHT22;27185;52.040;4.490;2023-04-24T11:06:13;12.60;99.90
41447;DHT22;27185;52.040;4.490;2023-04-24T11:09:07;12.60;99.90
41447;DHT22;27185;52.040;4.490;2023-04-24T11:12:03;12.80;99.90
41447;DHT22;27185;52.040;4.490;2023-04-24T11:15:00;13.10;99.90
41447;DHT22;27185;52.040;4.490;2023-04-24T11:17:45;13.30;99.90
41447;DHT22;27185;52.040;4.490;2023-04-24T11:20:31;13.60;99.90
41447;DHT22;27185;52.040;4.490;2023-04-24T11:23:18;13.80;99.90
41447;DHT22;27185;52.040;4.490;2023-04-24T11:26:11;14.00;99.90
41447;DHT22;27185;52.040;4.490;2023-04-24T11:29:07;14.20;99.90
41447;DHT22;27185;52.040;4.490;2023-04-24T11:31:53;14.40;99.90
41447;DHT22;27185;52.040;4.490;2023-04-24T11:34:38;14.50;99.90
41447;DHT22;27185;52.040;4.490;2023-04-24T11:37:27;14.50;99.90
41447;DHT22;27185;52.040;4.490;2023-04-24T11:40:15;14.50;99.90
41447;DHT22;27185;52.040;4.490;2023-04-24T11:43:01;14.50;99.90
41447;DHT22;27185;52.040;4.490;2023-04-24T11:45:49;14.40;99.90
41447;DHT22;27185;52.040;4.490;2023-04-24T11:48:35;14.40;99.90
41447;DHT22;27185;52.040;4.490;2023-04-24T11:51:23;14.40;99.90
41447;DHT22;27185;52.040;4.490;2023-04-24T11:54:10;14.40;99.90
41447;DHT22;27185;52.040;4.490;2023-04-24T11:56:56;14.40;99.90
41447;DHT22;27185;52.040;4.490;2023-04-24T11:59:42;14.40;99.90
41447;DHT22;27185;52.040;4.490;2023-04-24T12:02:28;14.40;99.90
41447;DHT22;27185;52.040;4.490;2023-04-24T12:05:27;14.30;99.90
41447;DHT22;27185;52.040;4.490;2023-04-24T12:08:29;14.30;99.90
41447;DHT22;27185;52.040;4.490;2023-04-24T12:11:16;14.20;99.90
41447;DHT22;27185;52.040;4.490;2023-04-24T12:14:10;14.20;99.90
41447;DHT22;27185;52.040;4.490;2023-04-24T12:16:56;14.00;99.90
41447;DHT22;27185;52.040;4.490;2023-04-24T12:19:46;13.90;99.90
41447;DHT22;27185;52.040;4.490;2023-04-24T12:22:49;13.70;99.90
41447;DHT22;27185;52.040;4.490;2023-04-24T12:25:35;13.60;99.90
41447;DHT22;27185;52.040;4.490;2023-04-24T12:28:20;13.50;99.90
41447;DHT22;27185;52.040;4.490;2023-04-24T12:31:06;13.40;99.90
41447;DHT22;27185;52.040;4.490;2023-04-24T12:33:52;13.50;99.90
41447;DHT22;27185;52.040;4.490;2023-04-24T12:36:38;13.60;99.90
41447;DHT22;27185;52.040;4.490;2023-04-24T12:39:23;13.60;99.90
41447;DHT22;27185;52.040;4.490;2023-04-24T12:42:12;13.70;99.90
41447;DHT22;27185;52.040;4.490;2023-04-24T12:45:04;13.70;99.90
41447;DHT22;27185;52.040;4.490;2023-04-24T12:47:51;13.90;99.90
41447;DHT22;27185;52.040;4.490;2023-04-24T12:50:38;14.10;99.90
41447;DHT22;27185;52.040;4.490;2023-04-24T12:53:23;14.20;99.90
41447;DHT22;27185;52.040;4.490;2023-04-24T12:56:11;14.40;99.90
41447;DHT22;27185;52.040;4.490;2023-04-24T12:58:57;14.50;99.90
41447;DHT22;27185;52.040;4.490;2023-04-24T13:01:42;14.50;99.90
41447;DHT22;27185;52.040;4.490;2023-04-24T13:04:28;14.30;99.90
41447;DHT22;27185;52.040;4.490;2023-04-24T13:07:14;14.20;99.90
41447;DHT22;27185;52.040;4.490;2023-04-24T13:10:00;14.10;99.90
41447;DHT22;27185;52.040;4.490;2023-04-24T13:12:45;14.00;99.90
41447;DHT22;27185;52.040;4.490;2023-04-24T13:15:31;13.90;99.90
41447;DHT22;27185;52.040;4.490;2023-04-24T13:18:17;13.80;99.90
41447;DHT22;27185;52.040;4.490;2023-04-24T13:21:02;13.80;99.90
41447;DHT22;27185;52.040;4.490;2023-04-24T13:23:48;13.90;99.90
41447;DHT22;27185;52.040;4.490;2023-04-24T13:26:34;14.00;99.90
41447;DHT22;27185;52.040;4.490;2023-04-24T13:29:20;14.10;99.90
41447;DHT22;27185;52.040;4.490;2023-04-24T13:32:06;14.30;99.90
41447;DHT22;27185;52.040;4.490;2023-04-24T13:34:52;14.30;99.40
41447;DHT22;27185;52.040;4.490;2023-04-24T13:37:37;14.40;99.90
41447;DHT22;27185;52.040;4.490;2023-04-24T13:40:23;14.40;99.70
41447;DHT22;27185;52.040;4.490;2023-04-24T13:43:08;14.40;99.10
41447;DHT22;27185;52.040;4.490;2023-04-24T13:45:54;14.20;99.90
41447;DHT22;27185;52.040;4.490;2023-04-24T13:48:40;14.20;99.90
41447;DHT22;27185;52.040;4.490;2023-04-24T13:51:26;14.10;99.90
41447;DHT22;27185;52.040;4.490;2023-04-24T13:54:14;14.20;99.90
41447;DHT22;27185;52.040;4.490;2023-04-24T13:57:00;14.30;99.90
41447;DHT22;27185;52.040;4.490;2023-04-24T13:59:46;14.40;99.90
41447;DHT22;27185;52.040;4.490;2023-04-24T14:02:32;14.50;99.90
41447;DHT22;27185;52.040;4.490;2023-04-24T14:05:17;14.50;99.90
41447;DHT22;27185;52.040;4.490;2023-04-24T14:08:03;14.50;99.90
41447;DHT22;27185;52.040;4.490;2023-04-24T14:10:49;14.40;99.90
41447;DHT22;27185;52.040;4.490;2023-04-24T14:13:37;14.10;99.90
41447;DHT22;27185;52.040;4.490;2023-04-24T14:16:25;13.70;99.90
41447;DHT22;27185;52.040;4.490;2023-04-24T14:19:11;13.30;99.90
41447;DHT22;27185;52.040;4.490;2023-04-24T14:21:56;13.00;99.90
41447;DHT22;27185;52.040;4.490;2023-04-24T14:24:43;12.70;99.90
41447;DHT22;27185;52.040;4.490;2023-04-24T14:27:29;12.60;99.90
41447;DHT22;27185;52.040;4.490;2023-04-24T14:30:16;12.50;99.90
41447;DHT22;27185;52.040;4.490;2023-04-24T14:33:02;12.50;99.90
41447;DHT22;27185;52.040;4.490;2023-04-24T14:35:47;12.50;99.90
41447;DHT22;27185;52.040;4.490;2023-04-24T14:38:34;12.50;99.90
41447;DHT22;27185;52.040;4.490;2023-04-24T14:41:20;12.50;99.90
41447;DHT22;27185;52.040;4.490;2023-04-24T14:44:06;12.50;99.90
41447;DHT22;27185;52.040;4.490;2023-04-24T14:46:51;12.60;99.90
41447;DHT22;27185;52.040;4.490;2023-04-24T14:49:37;12.70;99.90
41447;DHT22;27185;52.040;4.490;2023-04-24T14:52:23;13.00;99.90
41447;DHT22;27185;52.040;4.490;2023-04-24T14:55:09;13.20;99.90
41447;DHT22;27185;52.040;4.490;2023-04-24T14:57:55;13.30;99.90
41447;DHT22;27185;52.040;4.490;2023-04-24T15:00:40;13.40;99.90
41447;DHT22;27185;52.040;4.490;2023-04-24T15:03:26;13.50;99.90
41447;DHT22;27185;52.040;4.490;2023-04-24T15:06:12;13.50;99.90
41447;DHT22;27185;52.040;4.490;2023-04-24T15:08:58;13.50;99.90
41447;DHT22;27185;52.040;4.490;2023-04-24T15:11:43;13.50;99.90
41447;DHT22;27185;52.040;4.490;2023-04-24T15:14:29;13.30;99.90
41447;DHT22;27185;52.040;4.490;2023-04-24T15:17:15;13.30;99.90
41447;DHT22;27185;52.040;4.490;2023-04-24T15:20:00;13.20;99.90
41447;DHT22;27185;52.040;4.490;2023-04-24T15:22:46;13.10;99.90
41447;DHT22;27185;52.040;4.490;2023-04-24T15:25:31;12.80;99.90
41447;DHT22;27185;52.040;4.490;2023-04-24T15:28:17;12.70;99.90
41447;DHT22;27185;52.040;4.490;2023-04-24T15:31:03;12.70;99.90
41447;DHT22;27185;52.040;4.490;2023-04-24T15:33:49;12.80;99.90
41447;DHT22;27185;52.040;4.490;2023-04-24T15:36:35;12.90;99.90
41447;DHT22;27185;52.040;4.490;2023-04-24T15:39:24;13.10;99.90
41447;DHT22;27185;52.040;4.490;2023-04-24T15:42:09;13.40;99.90
41447;DHT22;27185;52.040;4.490;2023-04-24T15:44:55;13.70;99.90
41447;DHT22;27185;52.040;4.490;2023-04-24T15:47:41;14.00;99.90
41447;DHT22;27185;52.040;4.490;2023-04-24T15:50:26;14.30;99.90
41447;DHT22;27185;52.040;4.490;2023-04-24T15:53:12;14.40;99.90
41447;DHT22;27185;52.040;4.490;2023-04-24T15:55:58;14.40;99.90
41447;DHT22;27185;52.040;4.490;2023-04-24T15:58:43;14.30;99.90
41447;DHT22;27185;52.040;4.490;2023-04-24T16:01:30;14.20;99.50
41447;DHT22;27185;52.040;4.490;2023-04-24T16:04:15;14.20;99.90
41447;DHT22;27185;52.040;4.490;2023-04-24T16:07:01;14.10;99.90
41447;DHT22;27185;52.040;4.490;2023-04-24T16:09:47;14.00;99.90
41447;DHT22;27185;52.040;4.490;2023-04-24T16:12:32;13.90;99.90
41447;DHT22;27185;52.040;4.490;2023-04-24T16:15:18;13.90;99.90
41447;DHT22;27185;52.040;4.490;2023-04-24T16:18:04;13.70;99.90
41447;DHT22;27185;52.040;4.490;2023-04-24T16:20:49;13.70;99.90
41447;DHT22;27185;52.040;4.490;2023-04-24T16:23:35;13.60;99.90
41447;DHT22;27185;52.040;4.490;2023-04-24T16:26:21;13.40;99.90
41447;DHT22;27185;52.040;4.490;2023-04-24T16:29:06;13.40;99.90
41447;DHT22;27185;52.040;4.490;2023-04-24T16:31:52;13.30;99.90
41447;DHT22;27185;52.040;4.490;2023-04-24T16:34:38;13.20;99.90
41447;DHT22;27185;52.040;4.490;2023-04-24T16:37:23;13.20;99.90
41447;DHT22;27185;52.040;4.490;2023-04-24T16:40:09;13.10;99.90
41447;DHT22;27185;52.040;4.490;2023-04-24T16:42:55;13.00;99.90
41447;DHT22;27185;52.040;4.490;2023-04-24T16:45:40;13.00;99.90
41447;DHT22;27185;52.040;4.490;2023-04-24T16:48:26;12.90;99.90
41447;DHT22;27185;52.040;4.490;2023-04-24T16:51:11;12.90;99.90
41447;DHT22;27185;52.040;4.490;2023-04-24T16:53:57;12.80;99.90
41447;DHT22;27185;52.040;4.490;2023-04-24T16:56:43;12.80;99.90
41447;DHT22;27185;52.040;4.490;2023-04-24T16:59:29;12.70;99.90
41447;DHT22;27185;52.040;4.490;2023-04-24T17:02:18;12.70;99.90
41447;DHT22;27185;52.040;4.490;2023-04-24T17:05:04;12.60;99.90
41447;DHT22;27185;52.040;4.490;2023-04-24T17:07:49;12.50;99.90
41447;DHT22;27185;52.040;4.490;2023-04-24T17:10:35;12.50;99.90
41447;DHT22;27185;52.040;4.490;2023-04-24T17:13:21;12.40;99.90
41447;DHT22;27185;52.040;4.490;2023-04-24T17:16:06;12.40;99.90
41447;DHT22;27185;52.040;4.490;2023-04-24T17:18:52;12.30;99.90
41447;DHT22;27185;52.040;4.490;2023-04-24T17:21:38;12.30;99.90
41447;DHT22;27185;52.040;4.490;2023-04-24T17:24:23;12.30;99.90
41447;DHT22;27185;52.040;4.490;2023-04-24T17:27:10;12.30;99.90
41447;DHT22;27185;52.040;4.490;2023-04-24T17:29:56;12.20;99.90
41447;DHT22;27185;52.040;4.490;2023-04-24T17:32:42;12.20;99.90
41447;DHT22;27185;52.040;4.490;2023-04-24T17:35:28;12.10;99.90